createdAt,value
2022-08-31T04:02:45.714Z,16.10
2022-08-31T04:05:14.077Z,16.02
2022-08-31T04:07:42.915Z,15.94
2022-08-31T04:10:12.015Z,15.92
2022-08-31T04:12:40.552Z,15.92
2022-08-31T04:15:09.818Z,15.88
2022-08-31T04:17:37.536Z,15.82
2022-08-31T04:20:07.539Z,15.87
2022-08-31T04:22:35.414Z,15.88
2022-08-31T04:25:03.012Z,15.80
2022-08-31T04:27:30.725Z,15.77
2022-08-31T04:29:58.319Z,15.77
2022-08-31T04:32:25.893Z,15.78
2022-08-31T04:34:56.498Z,15.84
2022-08-31T04:37:25.646Z,15.88
2022-08-31T04:39:55.661Z,15.94
2022-08-31T04:42:27.013Z,15.94
2022-08-31T04:44:54.596Z,15.94
2022-08-31T04:47:22.187Z,15.91
2022-08-31T04:49:49.818Z,15.89
2022-08-31T04:52:17.407Z,15.92
2022-08-31T04:54:46.326Z,15.94
2022-08-31T04:57:13.898Z,15.99
2022-08-31T04:59:41.539Z,15.96
2022-08-31T05:02:09.176Z,15.97
2022-08-31T05:04:36.872Z,15.94
2022-08-31T05:07:04.514Z,15.92
2022-08-31T05:09:32.235Z,15.91
2022-08-31T05:12:01.143Z,15.93
2022-08-31T05:14:28.760Z,15.81
2022-08-31T05:16:56.465Z,15.80
2022-08-31T05:19:24.081Z,15.85
2022-08-31T05:21:51.667Z,15.82
2022-08-31T05:24:22.359Z,15.79
2022-08-31T05:26:51.398Z,15.82
2022-08-31T05:29:23.299Z,15.81
2022-08-31T05:31:52.600Z,15.76
2022-08-31T05:34:21.925Z,15.67
2022-08-31T05:36:51.724Z,15.68
2022-08-31T05:39:19.539Z,15.76
2022-08-31T05:41:48.305Z,15.86
2022-08-31T05:44:17.283Z,15.87
2022-08-31T05:46:57.243Z,15.79
2022-08-31T05:49:29.058Z,15.75
2022-08-31T05:51:57.138Z,15.79
2022-08-31T05:54:24.777Z,15.88
2022-08-31T05:56:52.464Z,15.97
2022-08-31T05:59:20.074Z,16.03
2022-08-31T06:01:48.995Z,16.08
2022-08-31T06:04:17.025Z,16.06
2022-08-31T06:06:44.662Z,16.10
2022-08-31T06:09:12.317Z,16.24
2022-08-31T06:11:42.033Z,16.38
2022-08-31T06:14:11.997Z,16.46
2022-08-31T06:16:40.617Z,16.53
2022-08-31T06:19:09.682Z,16.52
2022-08-31T06:21:50.159Z,16.57
2022-08-31T06:24:18.985Z,16.59
2022-08-31T06:26:57.308Z,16.55
2022-08-31T06:29:26.623Z,16.56
2022-08-31T06:31:55.441Z,16.59
2022-08-31T06:34:24.917Z,16.69
2022-08-31T06:36:52.532Z,16.72
2022-08-31T06:39:20.355Z,16.81
2022-08-31T06:41:48.848Z,16.89
2022-08-31T06:44:16.438Z,16.93
2022-08-31T06:46:44.775Z,17.01
2022-08-31T06:49:15.941Z,17.05
2022-08-31T06:51:45.313Z,16.81
2022-08-31T06:54:29.558Z,16.94
2022-08-31T06:56:58.142Z,17.08
2022-08-31T06:59:28.904Z,17.16
2022-08-31T07:01:57.585Z,17.27
2022-08-31T07:04:26.348Z,17.38
2022-08-31T07:06:55.352Z,17.49
2022-08-31T07:09:23.121Z,17.59
2022-08-31T07:11:53.461Z,17.56
2022-08-31T07:14:24.028Z,17.53
2022-08-31T07:16:53.205Z,17.44
2022-08-31T07:19:21.929Z,17.54
2022-08-31T07:21:51.846Z,17.63
2022-08-31T07:24:24.464Z,17.72
2022-08-31T07:26:54.894Z,17.56
2022-08-31T07:29:23.691Z,17.65
2022-08-31T07:31:52.051Z,17.72
2022-08-31T07:34:21.308Z,17.66
2022-08-31T07:37:07.011Z,17.64
2022-08-31T07:39:53.745Z,17.49
2022-08-31T07:42:26.858Z,17.54
2022-08-31T07:44:55.734Z,17.59
2022-08-31T07:47:25.262Z,17.71
2022-08-31T07:49:55.482Z,17.67
2022-08-31T07:52:26.848Z,17.70
2022-08-31T07:55:06.314Z,17.85
2022-08-31T07:57:37.097Z,17.94
2022-08-31T08:00:09.274Z,18.14
2022-08-31T08:02:39.101Z,18.28
2022-08-31T08:05:08.312Z,18.29
2022-08-31T08:07:37.121Z,18.45
2022-08-31T08:10:14.181Z,18.47
2022-08-31T08:12:42.461Z,18.51
2022-08-31T08:15:11.100Z,18.45
2022-08-31T08:17:38.965Z,18.39
2022-08-31T08:20:13.317Z,18.31
2022-08-31T08:22:54.345Z,18.12
2022-08-31T08:25:24.359Z,18.06
2022-08-31T08:27:55.029Z,18.25
2022-08-31T08:30:23.577Z,18.37
2022-08-31T08:32:51.164Z,18.48
2022-08-31T08:35:18.849Z,18.51
2022-08-31T08:37:58.560Z,18.57
2022-08-31T08:40:39.085Z,18.61
2022-08-31T08:43:06.893Z,18.45
2022-08-31T08:45:36.252Z,18.52
2022-08-31T08:48:09.272Z,18.56
2022-08-31T08:50:39.706Z,18.42
2022-08-31T08:53:10.843Z,18.30
2022-08-31T08:55:42.798Z,18.32
2022-08-31T08:58:13.664Z,18.47
2022-08-31T09:00:46.549Z,18.67
2022-08-31T09:03:44.191Z,18.82
2022-08-31T09:06:15.026Z,18.96
2022-08-31T09:09:23.180Z,19.09
2022-08-31T09:12:05.009Z,19.13
2022-08-31T09:14:49.678Z,19.07
2022-08-31T09:17:35.974Z,19.21
2022-08-31T09:20:05.691Z,19.10
2022-08-31T09:22:47.023Z,19.35
2022-08-31T09:25:16.887Z,19.30
2022-08-31T09:27:48.443Z,19.39
2022-08-31T09:30:33.302Z,19.48
2022-08-31T09:33:00.986Z,19.56
2022-08-31T09:35:36.782Z,19.53
2022-08-31T09:38:09.908Z,19.55
2022-08-31T09:40:41.076Z,19.67
2022-08-31T09:43:23.766Z,19.75
2022-08-31T09:45:58.733Z,19.78
2022-08-31T09:48:44.367Z,19.72
2022-08-31T09:51:22.088Z,19.63
2022-08-31T09:54:07.336Z,19.76
2022-08-31T09:56:52.110Z,19.74
2022-08-31T09:59:37.209Z,19.77
2022-08-31T10:02:10.603Z,19.83
2022-08-31T10:04:51.052Z,19.87
2022-08-31T10:07:37.691Z,19.81
2022-08-31T10:10:08.866Z,19.99
2022-08-31T10:13:01.670Z,20.04
2022-08-31T10:15:35.820Z,20.05
2022-08-31T10:18:13.677Z,20.05
2022-08-31T10:20:46.451Z,19.99
2022-08-31T10:23:20.964Z,20.08
2022-08-31T10:25:54.720Z,19.87
2022-08-31T10:28:32.055Z,19.98
2022-08-31T10:31:04.380Z,20.07
2022-08-31T10:33:52.405Z,20.07
2022-08-31T10:36:21.079Z,20.07
2022-08-31T10:38:51.790Z,20.05
2022-08-31T10:41:23.486Z,19.95
2022-08-31T10:44:00.150Z,19.87
2022-08-31T10:46:31.241Z,19.80
2022-08-31T10:49:01.799Z,19.77
2022-08-31T10:51:38.834Z,19.81
2022-08-31T10:54:33.823Z,19.78
2022-08-31T10:57:09.601Z,19.82
2022-08-31T10:59:56.161Z,19.79
2022-08-31T11:02:53.080Z,19.84
2022-08-31T11:05:32.470Z,19.82
2022-08-31T11:08:13.448Z,19.91
2022-08-31T11:10:48.567Z,19.93
2022-08-31T11:13:39.868Z,19.93
2022-08-31T11:16:40.020Z,20.05
2022-08-31T11:19:29.770Z,20.17
2022-08-31T11:22:21.486Z,20.28
2022-08-31T11:25:08.788Z,20.36
2022-08-31T11:27:41.793Z,20.43
2022-08-31T11:30:26.847Z,20.52
2022-08-31T11:32:59.603Z,20.54
2022-08-31T11:36:05.351Z,20.57
2022-08-31T11:38:52.086Z,20.69
2022-08-31T11:41:41.354Z,20.77
2022-08-31T11:44:10.857Z,20.90
2022-08-31T11:47:05.170Z,21.03
2022-08-31T11:49:44.622Z,21.22
2022-08-31T11:52:29.651Z,21.52
2022-08-31T11:55:04.120Z,21.64
2022-08-31T11:57:37.055Z,21.75
2022-08-31T12:00:19.384Z,21.83
2022-08-31T12:03:02.600Z,21.81
2022-08-31T12:05:57.725Z,21.91
2022-08-31T12:08:29.826Z,21.93
2022-08-31T12:11:03.202Z,21.97
2022-08-31T12:13:49.610Z,22.23
2022-08-31T12:16:41.739Z,22.33
2022-08-31T12:19:51.162Z,22.42
2022-08-31T12:23:08.892Z,22.50
2022-08-31T12:25:47.189Z,22.55
2022-08-31T12:28:29.367Z,22.53
2022-08-31T12:31:03.632Z,22.38
2022-08-31T12:33:32.133Z,22.38
2022-08-31T12:36:15.327Z,22.35
2022-08-31T12:38:43.183Z,22.48
2022-08-31T12:41:15.367Z,22.64
2022-08-31T12:43:46.011Z,22.77
2022-08-31T12:46:26.620Z,22.91
2022-08-31T12:49:08.780Z,23.06
2022-08-31T12:51:43.654Z,23.22
2022-08-31T12:54:32.350Z,23.37
2022-08-31T12:57:12.142Z,23.51
2022-08-31T13:00:00.434Z,23.67
2022-08-31T13:02:31.694Z,23.79
2022-08-31T13:05:00.886Z,23.83
2022-08-31T13:07:31.834Z,23.84
2022-08-31T13:10:07.672Z,23.89
2022-08-31T13:12:37.925Z,23.81
2022-08-31T13:15:09.853Z,23.77
2022-08-31T13:17:42.068Z,23.83
2022-08-31T13:20:13.447Z,23.84
2022-08-31T13:22:41.224Z,24.03
2022-08-31T13:25:16.371Z,24.20
2022-08-31T13:27:51.570Z,24.25
2022-08-31T13:30:25.474Z,24.37
2022-08-31T13:32:54.507Z,24.56
2022-08-31T13:35:25.174Z,24.56
2022-08-31T13:38:05.191Z,24.47
2022-08-31T13:40:37.143Z,24.46
2022-08-31T13:43:09.638Z,24.44
2022-08-31T13:45:43.022Z,24.61
2022-08-31T13:48:15.722Z,24.51
2022-08-31T13:50:52.706Z,24.62
2022-08-31T13:53:44.910Z,24.63
2022-08-31T13:56:39.177Z,24.55
2022-08-31T13:59:26.620Z,24.55
2022-08-31T14:01:56.751Z,24.64
2022-08-31T14:04:48.966Z,24.65
2022-08-31T14:07:21.410Z,24.78
2022-08-31T14:09:51.990Z,24.79
2022-08-31T14:12:34.544Z,24.87
2022-08-31T14:15:18.523Z,24.91
2022-08-31T14:21:09.936Z,24.68
2022-08-31T14:23:34.886Z,24.55
2022-08-31T14:26:05.703Z,24.37
2022-08-31T14:28:44.092Z,24.29
2022-08-31T14:31:22.801Z,24.14
2022-08-31T14:33:55.917Z,24.04
2022-08-31T14:36:26.083Z,23.88
2022-08-31T14:38:54.294Z,23.47
2022-08-31T14:41:31.181Z,23.50
2022-08-31T14:44:06.863Z,23.52
2022-08-31T14:46:38.503Z,23.54
2022-08-31T14:49:07.301Z,23.51
2022-08-31T14:51:35.554Z,23.43
2022-08-31T14:54:03.147Z,23.37
2022-08-31T14:56:34.056Z,23.33
2022-08-31T14:59:06.009Z,23.31
2022-08-31T15:01:36.589Z,23.17
2022-08-31T15:04:05.937Z,23.06
2022-08-31T15:06:34.107Z,23.12
2022-08-31T15:09:05.110Z,23.10
2022-08-31T15:11:37.234Z,23.08
2022-08-31T15:14:11.837Z,23.04
2022-08-31T15:16:43.271Z,22.99
2022-08-31T15:19:13.478Z,22.86
2022-08-31T15:21:43.591Z,22.79
2022-08-31T15:24:14.814Z,22.76
2022-08-31T15:26:43.624Z,22.59
2022-08-31T15:29:13.699Z,22.58
2022-08-31T15:31:49.355Z,22.59
2022-08-31T15:34:24.852Z,22.59
2022-08-31T15:36:56.098Z,22.62
2022-08-31T15:39:24.376Z,22.60
2022-08-31T15:41:52.314Z,22.57
2022-08-31T15:44:21.493Z,22.57
2022-08-31T15:47:08.393Z,22.50
2022-08-31T15:49:37.834Z,22.52
2022-08-31T15:52:07.982Z,22.56
2022-08-31T15:54:38.579Z,22.50
2022-08-31T15:57:07.806Z,22.43
2022-08-31T15:59:36.524Z,22.50
2022-08-31T16:02:07.595Z,22.52
2022-08-31T16:04:38.554Z,22.55
2022-08-31T16:07:09.379Z,22.55
2022-08-31T16:09:40.892Z,22.56
2022-08-31T16:12:12.074Z,22.48
2022-08-31T16:14:41.741Z,22.38
2022-08-31T16:17:12.196Z,22.30
2022-08-31T16:19:41.174Z,22.26
2022-08-31T16:22:09.529Z,22.23
2022-08-31T16:24:40.753Z,22.21
2022-08-31T16:27:12.139Z,22.20
2022-08-31T16:29:45.761Z,22.11
2022-08-31T16:32:14.989Z,22.06
2022-08-31T16:34:42.877Z,22.05
2022-08-31T16:37:10.832Z,22.06
2022-08-31T16:39:41.054Z,22.07
2022-08-31T16:42:11.154Z,22.08
2022-08-31T16:44:39.669Z,22.10
2022-08-31T16:47:09.233Z,22.10
2022-08-31T16:49:40.605Z,22.05
2022-08-31T16:52:11.300Z,21.94
2022-08-31T16:54:42.245Z,21.90
2022-08-31T16:57:10.300Z,21.89
2022-08-31T16:59:40.457Z,21.88
2022-08-31T17:02:09.931Z,21.89
2022-08-31T17:04:55.005Z,21.89
2022-08-31T17:07:24.890Z,21.88
2022-08-31T17:09:57.177Z,21.82
2022-08-31T17:12:27.475Z,21.83
2022-08-31T17:14:56.087Z,21.80
2022-08-31T17:17:26.098Z,21.78
2022-08-31T17:19:56.490Z,21.77
2022-08-31T17:22:32.652Z,21.72
2022-08-31T17:25:03.033Z,21.70
2022-08-31T17:27:33.695Z,21.66
2022-08-31T17:30:06.350Z,21.67
2022-08-31T17:32:37.326Z,21.62
2022-08-31T17:35:18.780Z,21.63
2022-08-31T17:37:50.126Z,21.64
2022-08-31T17:40:18.199Z,21.65
2022-08-31T17:42:46.315Z,21.59
2022-08-31T17:45:15.664Z,21.60
2022-08-31T17:47:43.494Z,21.57
2022-08-31T17:50:17.291Z,21.57
2022-08-31T17:52:45.642Z,21.54
2022-08-31T17:55:13.545Z,21.50
2022-08-31T17:57:42.205Z,21.49
2022-08-31T18:00:14.651Z,21.49
2022-08-31T18:02:42.496Z,21.49
2022-08-31T18:05:12.145Z,21.47
2022-08-31T18:07:41.735Z,21.47
2022-08-31T18:10:10.858Z,21.48
2022-08-31T18:12:42.363Z,21.45
2022-08-31T18:15:11.755Z,21.44
2022-08-31T18:17:40.068Z,21.45
2022-08-31T18:20:09.147Z,21.51
2022-08-31T18:22:36.896Z,21.52
2022-08-31T18:25:06.976Z,21.52
2022-08-31T18:27:34.751Z,21.52
2022-08-31T18:30:02.557Z,21.53
2022-08-31T18:32:36.347Z,21.50
2022-08-31T18:35:14.377Z,21.50
2022-08-31T18:37:42.803Z,21.49
2022-08-31T18:40:32.700Z,21.48
2022-08-31T18:43:18.751Z,21.49
2022-08-31T18:45:49.107Z,21.43
2022-08-31T18:48:26.054Z,21.38
2022-08-31T18:50:55.210Z,21.31
2022-08-31T18:53:29.015Z,21.31
2022-08-31T18:56:05.463Z,21.29
2022-08-31T18:58:33.342Z,21.26
2022-08-31T19:01:01.474Z,21.18
2022-08-31T19:03:29.737Z,21.12
2022-08-31T19:05:57.938Z,21.03
2022-08-31T19:08:26.865Z,20.98
2022-08-31T19:10:58.278Z,20.92
2022-08-31T19:13:31.603Z,20.89
2022-08-31T19:16:03.675Z,20.86
2022-08-31T19:18:36.699Z,20.83
2022-08-31T19:21:16.595Z,20.73
2022-08-31T19:23:44.720Z,20.67
2022-08-31T19:26:19.808Z,20.68
2022-08-31T19:28:50.442Z,20.67
2022-08-31T19:31:20.623Z,20.60
2022-08-31T19:33:49.350Z,20.52
2022-08-31T19:36:18.505Z,20.47
2022-08-31T19:38:47.387Z,20.45
2022-08-31T19:41:17.316Z,20.42
2022-08-31T19:43:52.236Z,20.40
2022-08-31T19:46:26.352Z,20.38
2022-08-31T19:48:59.435Z,20.37
2022-08-31T19:51:29.676Z,20.34
2022-08-31T19:53:59.506Z,20.31
2022-08-31T19:56:31.396Z,20.34
2022-08-31T19:59:00.196Z,20.36
2022-08-31T20:01:32.886Z,20.38
2022-08-31T20:04:02.186Z,20.36
2022-08-31T20:06:31.656Z,20.31
2022-08-31T20:08:59.574Z,20.27
2022-08-31T20:11:31.038Z,20.26
2022-08-31T20:14:00.181Z,20.26
2022-08-31T20:16:33.684Z,20.25
2022-08-31T20:19:04.759Z,20.33
2022-08-31T20:21:35.047Z,20.35
2022-08-31T20:24:06.489Z,20.38
2022-08-31T20:26:47.526Z,20.37
2022-08-31T20:29:21.169Z,20.22
2022-08-31T20:31:52.334Z,20.15
2022-08-31T20:34:22.923Z,20.15
2022-08-31T20:36:59.930Z,20.14
2022-08-31T20:39:31.318Z,20.09
2022-08-31T20:42:00.237Z,20.06
2022-08-31T20:44:29.808Z,20.03
2022-08-31T20:47:18.490Z,20.02
2022-08-31T20:49:51.127Z,20.00
2022-08-31T20:52:18.893Z,19.99
2022-08-31T20:54:46.592Z,19.98
2022-08-31T20:57:14.832Z,19.96
2022-08-31T20:59:42.479Z,19.95
2022-08-31T21:02:12.160Z,19.96
2022-08-31T21:04:43.586Z,19.94
2022-08-31T21:07:12.838Z,19.90
2022-08-31T21:09:41.456Z,19.84
2022-08-31T21:12:11.001Z,19.81
2022-08-31T21:14:43.218Z,19.77
2022-08-31T21:17:14.048Z,19.74
2022-08-31T21:19:43.348Z,19.72
2022-08-31T21:22:13.189Z,19.70
2022-08-31T21:24:43.470Z,19.57
2022-08-31T21:27:16.797Z,19.43
2022-08-31T21:29:46.841Z,19.42
2022-08-31T21:32:16.126Z,19.42
2022-08-31T21:34:43.782Z,19.37
2022-08-31T21:37:11.701Z,19.33
2022-08-31T21:39:40.358Z,19.23
2022-08-31T21:42:08.380Z,19.26
2022-08-31T21:44:37.356Z,19.14
2022-08-31T21:47:05.638Z,19.06
2022-08-31T21:49:35.909Z,18.93
2022-08-31T21:52:03.983Z,19.03
2022-08-31T21:54:31.542Z,19.06
2022-08-31T21:57:01.702Z,19.03
2022-08-31T21:59:32.586Z,18.91
2022-08-31T22:02:06.311Z,18.83
2022-08-31T22:04:37.150Z,18.80
2022-08-31T22:07:07.295Z,18.76
2022-08-31T22:09:36.864Z,18.82
2022-08-31T22:12:06.648Z,18.78
2022-08-31T22:14:37.870Z,18.78
2022-08-31T22:17:07.689Z,18.87
2022-08-31T22:19:39.454Z,18.91
2022-08-31T22:22:12.082Z,18.92
2022-08-31T22:24:41.515Z,18.94
2022-08-31T22:27:12.307Z,18.93
2022-08-31T22:29:40.951Z,18.94
2022-08-31T22:32:11.944Z,18.93
2022-08-31T22:34:42.125Z,18.88
2022-08-31T22:37:11.186Z,18.82
2022-08-31T22:39:40.274Z,18.79
2022-08-31T22:42:08.943Z,18.75
2022-08-31T22:44:37.565Z,18.61
2022-08-31T22:47:06.013Z,18.53
2022-08-31T22:49:33.605Z,18.50
2022-08-31T22:52:02.712Z,18.39
2022-08-31T22:54:30.710Z,18.43
2022-08-31T22:56:58.336Z,18.34
2022-08-31T22:59:27.736Z,18.39
